Time;durP1;ratioP1;P1;durP2;ratioP2;P2;SDS_P1;SDS_P2;PMS_P1;PMS_P2;Temp;Humidity;BMP_temperature;BMP_pressure;BME280_temperature;BME280_humidity;BME280_pressure;Samples;Min_cycle;Max_cycle;Signal;HPM_P1;HPM_P2
2022/06/29 00:00:17;;;;;;;18.00;16.83;;;;;;;24.01;57.61;100487.91;5000060;28;100004;-87
2022/06/29 00:02:46;;;;;;;17.45;16.33;;;;;;;23.76;58.29;100483.84;4990282;28;96841;-88
2022/06/29 00:05:13;;;;;;;17.15;15.95;;;;;;;23.79;58.49;100475.53;5015278;28;97015;-90
2022/06/29 00:07:39;;;;;;;17.70;16.70;;;;;;;23.73;58.50;100459.00;4998047;28;100432;-88
2022/06/29 00:10:06;;;;;;;17.20;16.10;;;;;;;23.69;58.63;100459.38;5027232;28;97241;-89
2022/06/29 00:12:31;;;;;;;17.83;16.42;;;;;;;23.69;58.84;100456.69;4997788;28;97252;-89
2022/06/29 00:14:58;;;;;;;17.40;16.15;;;;;;;23.65;58.95;100461.50;5031658;28;97014;-87
2022/06/29 00:17:23;;;;;;;18.00;16.58;;;;;;;23.71;59.15;100455.63;5027346;28;98515;-89
2022/06/29 00:19:49;;;;;;;17.83;16.63;;;;;;;23.63;59.34;100441.16;5011656;28;101346;-87
2022/06/29 00:22:15;;;;;;;17.70;16.40;;;;;;;23.64;58.82;100418.72;5015793;28;97171;-89
2022/06/29 00:24:41;;;;;;;17.70;16.40;;;;;;;23.69;59.04;100419.19;5013713;28;96924;-88
2022/06/29 00:27:08;;;;;;;18.13;16.80;;;;;;;23.75;58.76;100418.69;4996890;28;101441;-87
2022/06/29 00:29:34;;;;;;;18.52;17.15;;;;;;;23.59;59.24;100423.63;5004414;28;101611;-88
2022/06/29 00:32:00;;;;;;;17.75;16.45;;;;;;;23.47;59.56;100414.84;4983895;28;96828;-87
2022/06/29 00:34:25;;;;;;;18.13;16.88;;;;;;;23.38;59.90;100416.47;4992871;28;97169;-88
2022/06/29 00:36:51;;;;;;;18.02;16.77;;;;;;;23.25;60.29;100403.31;5013470;28;100797;-88
2022/06/29 00:39:16;;;;;;;17.55;16.45;;;;;;;23.24;60.30;100409.66;5010020;28;99867;-84
2022/06/29 00:41:44;;;;;;;17.58;16.48;;;;;;;23.31;60.28;100409.13;5012871;28;96751;-84
2022/06/29 00:44:14;;;;;;;17.25;15.98;;;;;;;23.24;60.21;100382.88;4992333;28;96806;-84
2022/06/29 00:46:47;;;;;;;18.05;16.48;;;;;;;23.28;60.10;100383.47;5011379;28;100007;-86
2022/06/29 00:49:14;;;;;;;17.85;16.60;;;;;;;23.34;60.13;100408.84;5026510;28;98059;-83
2022/06/29 00:51:40;;;;;;;17.45;16.33;;;;;;;23.26;60.18;100407.66;5027194;28;97030;-84
2022/06/29 00:54:07;;;;;;;17.60;16.50;;;;;;;23.34;60.15;100415.06;5012405;28;97502;-84
2022/06/29 00:56:32;;;;;;;17.42;16.33;;;;;;;23.28;60.18;100421.78;5012374;28;98296;-84
2022/06/29 00:59:03;;;;;;;17.80;16.52;;;;;;;23.24;60.65;100420.38;5012481;28;98287;-84
2022/06/29 01:01:30;;;;;;;17.48;16.30;;;;;;;23.23;60.65;100424.00;5017967;28;96945;-84
2022/06/29 01:03:55;;;;;;;17.63;16.42;;;;;;;23.16;60.72;100417.50;5027863;28;97191;-84
2022/06/29 01:06:21;;;;;;;17.52;16.33;;;;;;;23.03;60.78;100401.59;5013823;28;98112;-84
2022/06/29 01:08:47;;;;;;;17.40;16.30;;;;;;;23.04;61.14;100400.66;5009106;28;100036;-84
2022/06/29 01:11:13;;;;;;;18.10;16.70;;;;;;;23.03;60.73;100392.72;5012415;28;96917;-84
2022/06/29 01:13:43;;;;;;;17.42;16.20;;;;;;;23.01;60.73;100371.47;5006563;28;96866;-84
2022/06/29 01:16:09;;;;;;;17.35;16.15;;;;;;;23.05;60.98;100398.81;5026858;28;98253;-83
2022/06/29 01:18:35;;;;;;;18.02;16.88;;;;;;;23.05;61.02;100393.47;5006708;28;101262;-84
2022/06/29 01:21:04;;;;;;;18.20;16.52;;;;;;;23.01;60.82;100395.56;5009366;28;98124;-84
2022/06/29 01:23:30;;;;;;;17.35;16.25;;;;;;;23.12;60.91;100421.38;5022239;27;97291;-85
2022/06/29 01:25:55;;;;;;;18.23;16.85;;;;;;;23.07;60.96;100429.00;5009872;28;96805;-84
2022/06/29 01:28:21;;;;;;;17.60;16.38;;;;;;;22.97;61.09;100428.06;4996133;28;101820;-84
2022/06/29 01:30:46;;;;;;;17.50;16.40;;;;;;;23.01;61.28;100433.03;5029105;28;96704;-84
2022/06/29 01:33:12;;;;;;;17.25;16.25;;;;;;;23.09;61.02;100439.53;5012127;28;96782;-84
2022/06/29 01:35:37;;;;;;;17.90;16.35;;;;;;;22.96;61.10;100437.06;4995906;28;100464;-84
2022/06/29 01:38:03;;;;;;;17.08;15.88;;;;;;;23.02;60.90;100453.47;5007713;28;101191;-84
2022/06/29 01:40:28;;;;;;;17.58;16.38;;;;;;;22.53;61.99;100443.28;4995113;28;96948;-84
2022/06/29 01:42:55;;;;;;;16.88;15.77;;;;;;;22.67;61.80;100466.22;5010146;28;97090;-83
2022/06/29 01:45:21;;;;;;;17.15;16.05;;;;;;;22.60;62.00;100447.13;5012387;28;97513;-84
2022/06/29 01:47:46;;;;;;;17.27;16.17;;;;;;;22.75;61.72;100453.06;5029093;28;97968;-84
2022/06/29 01:50:12;;;;;;;16.67;15.60;;;;;;;22.87;61.44;100456.53;5011968;28;96707;-85
2022/06/29 01:52:37;;;;;;;17.33;16.23;;;;;;;22.89;61.33;100460.75;5012330;28;98629;-85
2022/06/29 01:55:03;;;;;;;17.23;16.02;;;;;;;22.96;60.98;100464.69;5018742;28;101705;-84
2022/06/29 01:57:29;;;;;;;17.17;16.08;;;;;;;22.90;61.31;100458.97;4991315;28;102588;-84
2022/06/29 01:59:54;;;;;;;16.60;15.60;;;;;;;22.87;61.18;100449.38;4994861;28;97263;-83
2022/06/29 02:02:20;;;;;;;17.25;16.15;;;;;;;22.97;61.00;100447.63;5008679;28;96818;-85
2022/06/29 02:04:45;;;;;;;17.27;16.17;;;;;;;22.88;61.10;100452.88;4990495;28;99977;-84
2022/06/29 02:07:11;;;;;;;17.48;16.10;;;;;;;22.85;61.55;100458.50;4994135;28;101606;-84
2022/06/29 02:09:36;;;;;;;17.83;16.73;;;;;;;22.62;62.12;100439.84;5011504;28;96848;-84
2022/06/29 02:12:02;;;;;;;17.85;16.45;;;;;;;22.50;62.05;100425.66;5013168;28;97045;-84
2022/06/29 02:14:29;;;;;;;18.10;16.90;;;;;;;22.47;62.07;100423.22;5010205;28;97920;-85
2022/06/29 02:16:55;;;;;;;17.63;16.35;;;;;;;22.57;62.05;100440.22;5006415;28;101635;-84
2022/06/29 02:19:20;;;;;;;18.58;17.38;;;;;;;22.57;62.16;100436.69;5025814;28;96618;-84
2022/06/29 02:21:46;;;;;;;17.67;16.58;;;;;;;22.57;62.13;100429.53;5026710;28;96834;-84
2022/06/29 02:24:11;;;;;;;17.65;16.35;;;;;;;22.71;61.54;100430.19;5008962;28;101271;-84
2022/06/29 02:26:37;;;;;;;18.15;16.80;;;;;;;22.58;61.90;100415.19;4991575;28;101685;-83
2022/06/29 02:29:02;;;;;;;18.67;17.17;;;;;;;22.62;61.80;100422.94;5007646;28;97111;-84
2022/06/29 02:36:56;;;;;;;18.50;17.25;;;;;;;22.59;62.03;100424.03;5026711;28;98396;-84
2022/06/29 02:39:21;;;;;;;18.00;16.90;;;;;;;22.73;61.67;100429.09;5011468;28;97123;-84
2022/06/29 02:41:47;;;;;;;17.52;16.33;;;;;;;22.72;61.88;100426.53;5011358;28;97091;-84
2022/06/29 02:44:12;;;;;;;17.83;16.63;;;;;;;22.68;61.93;100420.59;5009191;28;101059;-84
2022/06/29 02:46:38;;;;;;;18.85;17.20;;;;;;;22.65;61.95;100415.50;4999853;28;98387;-84
2022/06/29 02:49:03;;;;;;;17.70;16.50;;;;;;;22.53;62.15;100393.31;5029787;27;97075;-84
2022/06/29 02:51:29;;;;;;;18.38;17.15;;;;;;;22.59;62.06;100424.03;4994364;28;96969;-84
2022/06/29 02:53:54;;;;;;;17.75;16.60;;;;;;;22.69;61.91;100433.03;4998141;28;101196;-84
2022/06/29 02:56:20;;;;;;;18.63;17.23;;;;;;;22.48;62.17;100408.03;5013744;28;98485;-84
2022/06/29 02:58:45;;;;;;;19.40;18.10;;;;;;;22.54;62.60;100432.47;5022535;28;97971;-84
2022/06/29 03:01:11;;;;;;;19.25;17.95;;;;;;;22.41;62.85;100423.75;5012340;28;96904;-84
2022/06/29 03:03:36;;;;;;;20.13;18.58;;;;;;;22.40;63.30;100427.41;5014160;28;98709;-84
2022/06/29 03:06:02;;;;;;;20.20;18.60;;;;;;;22.43;62.96;100418.25;5028032;28;97999;-83
2022/06/29 03:08:27;;;;;;;19.85;18.50;;;;;;;22.38;63.21;100421.31;5011443;28;97725;-84
2022/06/29 03:10:52;;;;;;;19.58;18.17;;;;;;;22.09;63.81;100403.13;5013726;28;96901;-82
2022/06/29 03:13:18;;;;;;;20.20;18.20;;;;;;;22.35;63.34;100426.91;5012919;28;101034;-83
2022/06/29 03:15:43;;;;;;;20.08;18.52;;;;;;;22.24;63.29;100422.44;5009939;28;101229;-84
2022/06/29 03:18:09;;;;;;;20.00;18.58;;;;;;;22.41;63.30;100431.75;5024189;28;97070;-83
2022/06/29 03:20:34;;;;;;;20.20;18.70;;;;;;;22.42;63.40;100427.25;5008637;28;96737;-84
2022/06/29 03:23:00;;;;;;;20.10;18.60;;;;;;;22.47;63.03;100425.06;5007397;28;98203;-83
2022/06/29 03:25:25;;;;;;;19.98;18.30;;;;;;;22.49;62.99;100423.97;5008426;28;100313;-84
2022/06/29 03:27:51;;;;;;;21.02;19.42;;;;;;;22.45;63.26;100421.66;5024369;28;97155;-83
2022/06/29 03:30:18;;;;;;;20.85;19.40;;;;;;;22.31;63.55;100420.97;5007664;28;97063;-83
2022/06/29 03:32:43;;;;;;;20.00;18.45;;;;;;;22.35;63.49;100421.56;4993054;28;102701;-84
2022/06/29 03:35:09;;;;;;;19.75;18.30;;;;;;;22.27;63.71;100424.84;5012853;28;100909;-84
2022/06/29 03:37:34;;;;;;;21.20;19.50;;;;;;;22.18;63.87;100416.75;5025206;28;98520;-84
2022/06/29 03:40:01;;;;;;;21.52;19.40;;;;;;;22.15;64.32;100433.84;4983246;28;97301;-83
2022/06/29 03:42:26;;;;;;;19.77;18.35;;;;;;;22.15;64.35;100420.47;5009057;28;100177;-84
2022/06/29 03:44:51;;;;;;;20.17;18.88;;;;;;;22.11;64.26;100409.19;5015046;28;101830;-84
2022/06/29 03:47:17;;;;;;;21.05;19.42;;;;;;;22.15;64.44;100424.00;5004634;28;99969;-84
2022/06/29 03:49:42;;;;;;;20.05;18.75;;;;;;;22.06;64.23;100410.53;5019380;28;97179;-84
2022/06/29 03:52:09;;;;;;;20.02;18.42;;;;;;;22.26;64.07;100425.84;4992644;28;101431;-83
2022/06/29 03:54:34;;;;;;;20.70;18.83;;;;;;;22.28;64.02;100428.38;4993222;28;101185;-84
2022/06/29 03:57:00;;;;;;;21.38;19.88;;;;;;;22.21;63.78;100408.47;5017854;28;97109;-83
2022/06/29 03:59:25;;;;;;;21.55;19.90;;;;;;;22.09;63.80;100384.41;5011354;28;97740;-84
2022/06/29 04:01:51;;;;;;;21.05;19.17;;;;;;;22.21;63.76;100393.28;5012228;28;101523;-83
2022/06/29 04:04:16;;;;;;;21.13;19.52;;;;;;;22.29;64.05;100420.25;5007963;28;101067;-84
2022/06/29 04:06:42;;;;;;;21.13;19.55;;;;;;;22.42;63.85;100422.75;4992948;28;97054;-84
2022/06/29 04:09:08;;;;;;;22.33;20.70;;;;;;;22.36;63.83;100424.09;5001435;28;97043;-84
2022/06/29 04:11:48;;;;;;;22.20;20.55;;;;;;;22.27;64.36;100418.66;5007906;28;101700;-85
2022/06/29 04:14:27;;;;;;;22.90;21.20;;;;;;;22.19;64.71;100415.75;5020088;28;97490;-84
2022/06/29 04:16:54;;;;;;;21.95;20.38;;;;;;;22.04;65.08;100415.16;4991253;28;97308;-83
2022/06/29 04:19:19;;;;;;;22.60;20.90;;;;;;;22.05;65.17;100409.69;5006917;28;96899;-83
2022/06/29 04:21:46;;;;;;;22.65;20.70;;;;;;;22.17;64.85;100409.69;5003040;28;97943;-83
2022/06/29 04:24:12;;;;;;;21.33;19.92;;;;;;;22.20;64.60;100410.31;4997451;28;101315;-84
2022/06/29 04:26:38;;;;;;;21.27;19.77;;;;;;;22.20;64.56;100402.28;4976750;28;97888;-84
2022/06/29 04:29:03;;;;;;;22.65;20.83;;;;;;;22.23;64.46;100407.38;5011558;28;96837;-83
2022/06/29 04:31:29;;;;;;;22.50;20.70;;;;;;;22.31;64.29;100402.25;4995326;28;101880;-84
2022/06/29 04:33:54;;;;;;;24.33;22.13;;;;;;;22.08;64.60;100387.22;4998285;28;98392;-83
2022/06/29 04:36:20;;;;;;;21.90;20.30;;;;;;;22.20;64.50;100394.25;5009750;28;96779;-83
2022/06/29 04:38:45;;;;;;;22.92;20.88;;;;;;;22.05;65.34;100408.81;4989383;28;97234;-84
2022/06/29 04:41:11;;;;;;;21.88;20.40;;;;;;;21.89;65.31;100393.19;5011799;28;100956;-84
2022/06/29 04:43:37;;;;;;;22.92;21.00;;;;;;;21.97;65.15;100393.41;5011732;28;101926;-84
2022/06/29 04:46:21;;;;;;;22.50;20.73;;;;;;;22.13;64.78;100393.84;5024318;28;96856;-84
2022/06/29 04:48:48;;;;;;;21.15;19.63;;;;;;;22.16;64.88;100400.78;5028736;28;96805;-84
2022/06/29 04:51:15;;;;;;;22.13;20.30;;;;;;;22.10;64.91;100388.75;5012169;28;101902;-84
2022/06/29 04:53:41;;;;;;;22.45;20.65;;;;;;;22.19;64.64;100410.41;5010432;28;102735;-83
2022/06/29 04:56:07;;;;;;;22.48;20.35;;;;;;;22.10;64.86;100399.47;5003459;28;98701;-83
2022/06/29 04:58:32;;;;;;;22.40;20.50;;;;;;;22.11;65.00;100409.19;5009486;28;96801;-84
2022/06/29 05:00:58;;;;;;;24.05;22.10;;;;;;;21.88;65.65;100399.50;5004489;28;97032;-79
2022/06/29 05:03:23;;;;;;;19.33;17.60;;;;;;;21.90;65.58;100397.53;5005888;28;101356;-79
2022/06/29 05:05:49;;;;;;;23.08;20.80;;;;;;;21.98;65.49;100397.78;5004861;28;97142;-85
2022/06/29 05:08:15;;;;;;;21.10;19.65;;;;;;;22.10;64.97;100388.75;4994416;28;98297;-85
2022/06/29 05:10:41;;;;;;;20.88;19.27;;;;;;;22.31;64.59;100407.59;5006667;28;100059;-79
2022/06/29 05:13:09;;;;;;;22.45;20.85;;;;;;;22.37;64.63;100414.28;5016385;28;99494;-79
2022/06/29 05:15:35;;;;;;;22.13;20.30;;;;;;;22.36;64.33;100412.56;5011728;28;98524;-80
2022/06/29 05:18:01;;;;;;;22.55;20.35;;;;;;;22.45;64.27;100414.47;5005955;28;97494;-81
2022/06/29 05:20:26;;;;;;;22.23;20.63;;;;;;;22.46;64.19;100432.25;5024674;28;98154;-82
2022/06/29 05:22:52;;;;;;;22.17;20.55;;;;;;;22.20;64.86;100410.31;5022101;28;100937;-81
2022/06/29 05:25:18;;;;;;;20.67;19.27;;;;;;;22.37;64.58;100423.16;4987353;28;97268;-81
2022/06/29 05:27:43;;;;;;;22.00;20.48;;;;;;;22.32;64.64;100428.00;5004875;28;96984;-82
2022/06/29 05:30:09;;;;;;;23.02;21.23;;;;;;;22.29;64.59;100416.72;4989745;28;100864;-80
2022/06/29 05:32:35;;;;;;;21.77;20.20;;;;;;;22.40;64.66;100418.50;4993481;28;101562;-82
2022/06/29 05:35:01;;;;;;;22.60;20.90;;;;;;;22.43;64.26;100421.78;5007859;28;97536;-82
2022/06/29 05:37:27;;;;;;;22.63;20.38;;;;;;;22.35;64.25;100398.34;5006105;28;97448;-82
2022/06/29 05:39:52;;;;;;;22.42;20.80;;;;;;;22.59;64.16;100424.88;5008017;28;101586;-81
2022/06/29 05:42:18;;;;;;;22.63;20.75;;;;;;;22.55;64.21;100425.28;5020203;28;97296;-87
2022/06/29 05:44:43;;;;;;;22.55;21.05;;;;;;;22.10;65.04;100380.75;5013112;28;96870;-86
2022/06/29 05:47:09;;;;;;;22.65;20.95;;;;;;;22.28;64.31;100367.75;5012502;28;97055;-85
2022/06/29 05:49:35;;;;;;;23.45;21.65;;;;;;;22.54;64.24;100392.34;5011592;28;100847;-85
2022/06/29 05:52:01;;;;;;;23.35;21.65;;;;;;;22.65;63.98;100412.00;5008292;28;101458;-90
2022/06/29 05:54:27;;;;;;;22.70;20.55;;;;;;;22.68;64.25;100417.06;4982441;28;96777;-85
2022/06/29 05:56:52;;;;;;;23.58;21.77;;;;;;;22.66;64.29;100406.53;5011986;28;96868;-84
2022/06/29 05:59:18;;;;;;;22.42;20.77;;;;;;;22.77;63.96;100401.09;5006911;28;98662;-92
2022/06/29 06:01:43;;;;;;;22.83;21.17;;;;;;;23.01;63.51;100414.28;5012393;28;101282;-77
2022/06/29 06:04:09;;;;;;;23.95;21.88;;;;;;;23.67;61.76;100405.91;5007300;28;97789;-76
2022/06/29 06:06:34;;;;;;;23.17;21.27;;;;;;;24.46;59.47;100402.50;5007408;28;97197;-76
2022/06/29 06:09:00;;;;;;;24.95;22.75;;;;;;;24.35;59.26;100382.00;5006267;28;101671;-76
2022/06/29 06:11:26;;;;;;;24.88;22.98;;;;;;;24.48;59.13;100381.75;5009462;28;101519;-77
2022/06/29 06:13:51;;;;;;;22.88;21.17;;;;;;;24.47;58.83;100381.91;5009569;28;96852;-77
2022/06/29 06:16:17;;;;;;;23.50;21.58;;;;;;;24.67;58.49;100386.31;4993539;28;97330;-77
2022/06/29 06:18:42;;;;;;;22.20;20.40;;;;;;;24.46;58.94;100370.31;5005530;28;100972;-77
2022/06/29 06:21:08;;;;;;;22.48;20.65;;;;;;;24.72;59.04;100386.69;5010250;28;101301;-77
2022/06/29 06:23:33;;;;;;;23.55;21.40;;;;;;;24.79;58.19;100374.41;5026176;27;97178;-78
2022/06/29 06:25:59;;;;;;;23.77;22.00;;;;;;;25.45;56.19;100344.06;5032573;28;96660;-77
2022/06/29 06:28:24;;;;;;;23.23;21.50;;;;;;;26.11;54.82;100350.22;5028474;28;101489;-77
2022/06/29 06:30:50;;;;;;;22.85;21.05;;;;;;;27.18;52.75;100342.09;5022093;28;100880;-77
2022/06/29 06:33:15;;;;;;;21.75;20.33;;;;;;;28.23;49.76;100337.31;5027093;28;96967;-78
2022/06/29 06:35:41;;;;;;;24.77;22.88;;;;;;;27.36;51.56;100347.41;5004083;28;96991;-77
2022/06/29 06:38:06;;;;;;;24.13;22.38;;;;;;;26.28;53.77;100353.94;5008547;28;101863;-77
2022/06/29 06:43:16;;;;;;;22.98;21.27;;;;;;;25.63;55.89;100345.97;5046113;27;96877;-76
2022/06/29 06:45:42;;;;;;;24.35;22.45;;;;;;;25.26;56.47;100353.00;5004591;28;96819;-76
2022/06/29 06:48:08;;;;;;;23.70;21.83;;;;;;;24.82;57.82;100325.81;5025249;28;97705;-76
2022/06/29 06:50:33;;;;;;;24.25;22.35;;;;;;;24.74;58.43;100335.56;5023168;27;98101;-75
2022/06/29 06:52:59;;;;;;;24.42;22.35;;;;;;;24.80;58.28;100337.69;5020552;28;97413;-76
2022/06/29 06:55:24;;;;;;;23.77;21.85;;;;;;;24.65;58.83;100344.50;5011450;28;98193;-89
2022/06/29 06:57:50;;;;;;;22.73;20.92;;;;;;;24.89;58.52;100344.03;4998562;28;99943;-92
2022/06/29 07:00:15;;;;;;;22.20;20.20;;;;;;;25.14;57.70;100335.38;5017578;28;101655;-90
2022/06/29 07:02:41;;;;;;;21.83;20.30;;;;;;;25.59;56.78;100357.97;4998061;28;96827;-90
2022/06/29 07:05:07;;;;;;;24.70;22.55;;;;;;;26.05;55.25;100356.22;5000933;28;96900;-93
2022/06/29 07:07:33;;;;;;;23.95;21.95;;;;;;;26.23;54.66;100364.31;5011776;28;101273;-91
2022/06/29 07:09:59;;;;;;;23.27;21.45;;;;;;;26.96;53.57;100364.97;4991230;28;101275;-89
2022/06/29 07:12:24;;;;;;;24.00;21.80;;;;;;;26.82;53.02;100344.88;5021613;28;96830;-92
2022/06/29 07:14:50;;;;;;;23.05;21.35;;;;;;;26.97;53.17;100338.91;4988829;28;96957;-90
2022/06/29 07:17:15;;;;;;;23.75;21.48;;;;;;;28.02;51.47;100366.63;4995641;28;102045;-94
2022/06/29 07:19:41;;;;;;;21.88;20.38;;;;;;;27.82;51.03;100357.94;5016442;28;100147;-92
2022/06/29 07:22:06;;;;;;;22.95;21.23;;;;;;;28.14;50.76;100339.16;5011565;28;97088;-90
2022/06/29 07:24:32;;;;;;;22.65;20.92;;;;;;;28.82;49.07;100372.28;5016104;28;98294;-90
2022/06/29 07:26:58;;;;;;;23.40;21.67;;;;;;;28.15;50.51;100359.72;4998231;28;98589;-91
2022/06/29 07:29:24;;;;;;;21.83;20.13;;;;;;;28.05;50.87;100350.94;4989978;28;101317;-90
2022/06/29 07:31:50;;;;;;;22.23;20.08;;;;;;;29.33;47.69;100344.03;5011787;28;97116;-88
2022/06/29 07:34:15;;;;;;;22.85;21.02;;;;;;;30.28;45.28;100324.16;5001388;28;96877;-87
2022/06/29 07:36:42;;;;;;;22.63;20.52;;;;;;;29.85;45.95;100368.91;5015463;28;101416;-91
2022/06/29 07:39:07;;;;;;;23.17;21.33;;;;;;;28.74;47.70;100356.97;5022255;28;97699;-91
2022/06/29 07:41:32;;;;;;;22.15;20.55;;;;;;;29.50;46.93;100381.84;5009642;28;97015;-89
2022/06/29 07:43:58;;;;;;;20.92;19.23;;;;;;;29.20;47.25;100386.13;4996471;28;97261;-89
2022/06/29 07:46:26;;;;;;;21.27;19.85;;;;;;;28.32;48.64;100376.78;5014426;28;98515;-90
2022/06/29 07:48:51;;;;;;;22.48;20.55;;;;;;;27.95;49.78;100406.84;5011694;28;100552;-90
2022/06/29 07:51:17;;;;;;;21.67;20.17;;;;;;;27.48;50.47;100369.53;5013381;28;97209;-93
2022/06/29 07:53:42;;;;;;;21.33;19.83;;;;;;;27.39;50.63;100376.75;5004383;28;97360;-95
2022/06/29 07:56:08;;;;;;;21.27;19.67;;;;;;;27.21;50.88;100346.31;5012804;28;100460;-96
2022/06/29 07:58:33;;;;;;;20.83;19.23;;;;;;;27.10;51.45;100356.31;5017881;28;101562;-96
2022/06/29 08:00:59;;;;;;;21.20;19.45;;;;;;;26.83;51.95;100337.63;5008103;28;97644;-90
2022/06/29 08:03:24;;;;;;;22.63;20.73;;;;;;;26.51;52.44;100333.66;4991971;28;98782;-94
2022/06/29 08:05:50;;;;;;;21.30;19.80;;;;;;;26.08;53.23;100331.72;5003348;28;100161;-95
2022/06/29 08:08:16;;;;;;;21.08;19.38;;;;;;;25.66;53.92;100319.63;4988554;28;99848;-90
2022/06/29 08:10:42;;;;;;;21.55;20.00;;;;;;;25.50;55.87;100362.41;5031594;27;97539;-94
2022/06/29 08:13:08;;;;;;;22.63;20.83;;;;;;;25.05;55.86;100307.53;5013469;28;96841;-91
2022/06/29 08:15:34;;;;;;;22.02;20.08;;;;;;;24.88;57.00;100302.91;4998549;28;101350;-90
2022/06/29 08:18:01;;;;;;;20.98;19.52;;;;;;;24.98;57.98;100344.00;5012292;28;100874;-93
2022/06/29 08:20:28;;;;;;;20.90;19.30;;;;;;;24.83;58.62;100332.03;5004156;28;97250;-88
2022/06/29 08:22:54;;;;;;;22.10;20.40;;;;;;;24.65;59.60;100299.72;4998173;28;96808;-89
2022/06/29 08:25:20;;;;;;;22.42;20.58;;;;;;;24.53;60.34;100274.88;4996384;28;101344;-90
2022/06/29 08:27:52;;;;;;;22.30;20.38;;;;;;;24.36;60.90;100275.56;4992583;28;101742;-91
2022/06/29 08:30:18;;;;;;;23.52;21.50;;;;;;;23.98;62.41;100269.22;4998977;28;96726;-83
2022/06/29 08:32:44;;;;;;;23.80;22.02;;;;;;;23.90;63.48;100298.53;5011180;28;97146;-80
2022/06/29 08:35:15;;;;;;;23.52;21.60;;;;;;;23.78;64.24;100296.97;4997660;28;101677;-90
2022/06/29 08:37:41;;;;;;;23.52;21.67;;;;;;;23.97;63.79;100301.50;5012409;28;101865;-75
2022/06/29 08:40:09;;;;;;;23.88;22.08;;;;;;;23.99;64.11;100315.63;4995711;28;96689;-84
2022/06/29 08:42:38;;;;;;;22.58;20.95;;;;;;;24.01;63.61;100325.22;5011736;28;97432;-82
2022/06/29 08:45:04;;;;;;;24.00;21.88;;;;;;;24.03;63.72;100330.44;4994881;28;101276;-83
2022/06/29 08:47:30;;;;;;;23.10;21.48;;;;;;;23.83;63.99;100311.66;5023156;28;97359;-82
2022/06/29 08:49:56;;;;;;;23.10;20.98;;;;;;;23.97;64.02;100329.19;5011406;28;96758;-82
2022/06/29 08:52:23;;;;;;;23.67;21.88;;;;;;;23.90;64.44;100312.78;5003529;28;96793;-81
2022/06/29 08:54:52;;;;;;;24.00;22.02;;;;;;;23.96;64.68;100306.03;4994852;28;101501;-81
2022/06/29 08:57:18;;;;;;;24.60;22.48;;;;;;;24.23;64.52;100317.91;5010704;28;98102;-82
2022/06/29 08:59:44;;;;;;;24.15;22.33;;;;;;;24.24;63.71;100317.78;5010930;28;97027;-81
2022/06/29 09:02:11;;;;;;;24.15;22.25;;;;;;;24.49;63.52;100342.38;5008434;28;97217;-82
2022/06/29 09:04:37;;;;;;;24.08;22.08;;;;;;;24.41;63.18;100324.28;5025837;28;97521;-81
2022/06/29 09:07:03;;;;;;;22.58;20.92;;;;;;;24.34;63.76;100326.66;5007270;28;101432;-74
2022/06/29 09:09:28;;;;;;;23.33;21.42;;;;;;;24.36;64.21;100339.94;4993083;28;97335;-76
2022/06/29 09:11:54;;;;;;;22.70;20.95;;;;;;;24.33;63.95;100357.16;5009963;28;97549;-76
2022/06/29 09:14:22;;;;;;;24.60;22.58;;;;;;;24.18;64.89;100374.66;4992878;28;101212;-76
2022/06/29 09:16:58;;;;;;;26.42;23.90;;;;;;;24.02;66.62;100401.97;5011560;28;101108;-86
2022/06/29 09:19:27;;;;;;;25.80;23.23;;;;;;;23.93;67.00;100408.16;4994072;28;97471;-85
2022/06/29 09:21:54;;;;;;;24.27;22.25;;;;;;;23.83;67.77;100400.09;5011946;28;97154;-85
2022/06/29 09:24:29;;;;;;;25.52;23.00;;;;;;;23.75;67.93;100399.06;4994517;28;101062;-83
2022/06/29 09:27:00;;;;;;;25.15;23.00;;;;;;;23.65;68.07;100351.63;5004277;28;101797;-88
2022/06/29 09:29:27;;;;;;;26.00;23.65;;;;;;;23.95;67.53;100357.94;5012246;28;97169;-85
2022/06/29 09:32:05;;;;;;;26.67;24.15;;;;;;;24.11;67.15;100360.94;5008816;28;96994;-81
2022/06/29 09:34:33;;;;;;;25.23;22.92;;;;;;;24.36;66.59;100354.19;5012564;27;98184;-81
2022/06/29 09:37:00;;;;;;;24.83;22.90;;;;;;;24.38;66.98;100346.03;5009628;28;101837;-84
2022/06/29 09:39:33;;;;;;;25.30;23.13;;;;;;;24.30;66.48;100333.31;5021405;28;98001;-82
2022/06/29 09:41:59;;;;;;;25.00;22.90;;;;;;;24.29;67.06;100330.75;5021626;28;97090;-83
2022/06/29 09:44:25;;;;;;;24.55;22.52;;;;;;;24.28;66.76;100318.34;5010358;28;100933;-82
2022/06/29 09:46:55;;;;;;;24.65;22.85;;;;;;;24.40;66.74;100322.56;4999432;28;97683;-81
2022/06/29 09:49:25;;;;;;;24.75;22.55;;;;;;;24.56;66.22;100324.72;5021102;28;96801;-85
2022/06/29 09:51:55;;;;;;;25.33;22.98;;;;;;;24.91;65.17;100331.31;4990464;28;97367;-83
2022/06/29 09:54:28;;;;;;;24.23;22.13;;;;;;;25.36;65.44;100318.03;4991517;28;101169;-85
2022/06/29 09:56:56;;;;;;;24.13;22.05;;;;;;;25.63;64.77;100325.31;5014539;27;101341;-83
2022/06/29 10:02:34;;;;;;;23.35;21.42;;;;;;;25.91;63.34;100319.91;5011816;28;97374;-85
2022/06/29 10:05:01;;;;;;;24.25;21.80;;;;;;;26.11;62.89;100318.78;5025424;28;98955;-86
2022/06/29 10:07:32;;;;;;;23.75;21.85;;;;;;;26.26;61.92;100318.25;5012205;28;96943;-83
2022/06/29 10:09:59;;;;;;;22.55;20.27;;;;;;;26.31;59.20;100302.50;4995175;28;97362;-87
2022/06/29 10:16:17;;;;;;;21.73;20.05;;;;;;;26.52;60.00;100324.59;5028346;28;99764;-84
2022/06/29 10:19:21;;;;;;;22.40;20.55;;;;;;;26.56;59.37;100303.63;5011852;28;100659;-85
2022/06/29 10:21:46;;;;;;;22.58;20.80;;;;;;;26.67;59.17;100295.25;5029387;28;97362;-90
2022/06/29 10:24:15;;;;;;;22.48;20.95;;;;;;;26.90;60.20;100297.44;5028407;28;96683;-88
2022/06/29 10:26:41;;;;;;;23.15;21.25;;;;;;;27.03;58.82;100306.78;5026154;28;102042;-87
2022/06/29 10:29:09;;;;;;;23.70;21.90;;;;;;;27.07;58.74;100313.53;5013064;28;102429;-86
2022/06/29 10:31:50;;;;;;;21.70;20.08;;;;;;;27.19;57.62;100310.59;5026355;28;98083;-87
2022/06/29 10:34:28;;;;;;;22.77;20.85;;;;;;;27.13;57.97;100317.44;5027130;28;98106;-87
2022/06/29 10:37:03;;;;;;;21.95;20.35;;;;;;;27.34;57.30;100303.59;5029689;28;98095;-87
2022/06/29 10:39:49;;;;;;;22.52;20.83;;;;;;;27.38;56.42;100299.59;4997573;28;100132;-86
2022/06/29 10:45:16;;;;;;;22.15;20.55;;;;;;;27.58;56.15;100283.16;5025818;28;96878;-88
2022/06/29 10:48:06;;;;;;;22.88;21.30;;;;;;;27.50;55.70;100271.34;5019315;28;100927;-88
2022/06/29 10:50:32;;;;;;;22.80;21.03;;;;;;;27.50;55.78;100259.72;5016914;28;100950;-87
2022/06/29 10:53:05;;;;;;;22.63;21.10;;;;;;;27.32;55.50;100276.00;5009374;28;97382;-87
2022/06/29 10:55:33;;;;;;;22.95;21.05;;;;;;;27.27;55.49;100265.69;5012889;28;97683;-89
2022/06/29 10:57:58;;;;;;;21.75;19.92;;;;;;;27.23;55.60;100258.94;5012906;28;101281;-86
2022/06/29 11:00:27;;;;;;;20.08;18.40;;;;;;;27.41;56.13;100264.25;5026149;28;98413;-86
2022/06/29 11:02:53;;;;;;;22.92;21.02;;;;;;;27.34;55.17;100270.44;5029369;28;97491;-88
2022/06/29 11:05:19;;;;;;;23.92;21.98;;;;;;;27.22;54.70;100253.72;5030676;28;96795;-88
2022/06/29 11:13:26;;;;;;;30.35;25.67;;;;;;;27.30;55.63;100232.19;5029595;28;96779;-89
2022/06/29 11:15:54;;;;;;;24.73;22.80;;;;;;;27.38;55.54;100236.78;5011989;28;96937;-87
2022/06/29 11:18:29;;;;;;;25.42;23.33;;;;;;;27.16;55.42;100219.34;5013735;28;100184;-90
2022/06/29 11:21:02;;;;;;;25.33;23.10;;;;;;;27.04;55.53;100235.75;5042228;27;98779;-85
2022/06/29 11:23:28;;;;;;;23.13;21.23;;;;;;;26.95;56.22;100215.16;5011387;28;97201;-91
2022/06/29 11:25:54;;;;;;;24.20;22.33;;;;;;;26.95;55.02;100241.25;5013960;28;96960;-86
2022/06/29 11:28:23;;;;;;;22.67;20.92;;;;;;;26.88;56.11;100243.75;5011254;28;97991;-88